Time;durP1;ratioP1;P1;durP2;ratioP2;P2;SDS_P1;SDS_P2;PMS_P1;PMS_P2;Temp;Humidity;BMP_temperature;BMP_pressure;BME280_temperature;BME280_humidity;BME280_pressure;Samples;Min_cycle;Max_cycle;Signal;HPM_P1;HPM_P2
2021/07/03 00:01:55;;;;;;;7.53;5.87;;;;;;;14.37;100.00;99204.66;10454392;28;20179;-82
2021/07/03 00:07:15;;;;;;;11.90;5.13;;;;;;;14.39;100.00;99191.97;10452734;28;20180;-82
2021/07/03 00:12:34;;;;;;;8.60;4.60;;;;;;;14.25;100.00;99199.72;10461284;28;20211;-82
2021/07/03 00:17:56;;;;;;;11.00;5.20;;;;;;;14.12;100.00;99197.97;10461424;28;20241;-82
2021/07/03 00:23:15;;;;;;;11.37;4.97;;;;;;;14.03;100.00;99201.25;10462594;28;20199;-82
2021/07/03 00:28:34;;;;;;;7.90;5.60;;;;;;;14.11;100.00;99201.91;10461401;28;20626;-82
2021/07/03 00:33:52;;;;;;;6.23;5.10;;;;;;;14.00;100.00;99204.84;10458942;28;20179;-81
2021/07/03 00:39:11;;;;;;;7.87;5.40;;;;;;;13.72;100.00;99199.75;10460950;28;20270;-82
2021/07/03 00:44:33;;;;;;;8.60;5.80;;;;;;;13.60;100.00;99199.53;10461807;28;20183;-82
2021/07/03 00:49:52;;;;;;;6.20;5.37;;;;;;;13.73;100.00;99195.75;10458891;28;20203;-83
2021/07/03 00:55:15;;;;;;;7.23;5.17;;;;;;;13.73;100.00;99203.28;10460195;28;20258;-83
2021/07/03 01:00:34;;;;;;;9.30;6.30;;;;;;;13.54;100.00;99201.16;10461189;28;20570;-83
2021/07/03 01:05:53;;;;;;;7.43;5.23;;;;;;;13.50;100.00;99211.50;10458442;28;20203;-82
2021/07/03 01:11:11;;;;;;;10.00;5.90;;;;;;;13.31;100.00;99208.59;10459443;28;20657;-83
2021/07/03 01:16:31;;;;;;;8.60;5.73;;;;;;;13.45;100.00;99211.94;10458931;28;20705;-83
2021/07/03 01:21:55;;;;;;;6.40;4.93;;;;;;;13.29;100.00;99205.47;10458466;28;20668;-81
2021/07/03 01:27:14;;;;;;;8.87;6.10;;;;;;;13.36;100.00;99217.22;10460131;28;20175;-81
2021/07/03 01:32:33;;;;;;;6.60;5.30;;;;;;;13.18;100.00;99215.84;10456941;28;20688;-83
2021/07/03 01:37:53;;;;;;;8.97;6.00;;;;;;;13.30;100.00;99213.31;10458773;28;20536;-82
2021/07/03 01:43:17;;;;;;;12.10;6.20;;;;;;;13.14;100.00;99215.13;10458850;28;20167;-81
2021/07/03 01:48:36;;;;;;;6.13;4.90;;;;;;;12.99;100.00;99210.97;10456411;28;20184;-81
2021/07/03 01:53:55;;;;;;;5.10;4.20;;;;;;;12.88;100.00;99207.53;10457398;28;20210;-81
2021/07/03 01:59:14;;;;;;;6.50;4.97;;;;;;;12.83;100.00;99202.44;10458826;28;20202;-81
2021/07/03 02:04:33;;;;;;;7.20;5.27;;;;;;;12.75;100.00;99207.25;10457400;28;20258;-81
2021/07/03 02:09:52;;;;;;;9.00;4.70;;;;;;;12.88;100.00;99210.28;10458066;28;20665;-82
2021/07/03 02:15:11;;;;;;;8.77;5.47;;;;;;;12.79;100.00;99216.28;10457752;28;20247;-84
2021/07/03 02:20:33;;;;;;;8.27;5.43;;;;;;;12.66;100.00;99211.69;10456391;28;20183;-82
2021/07/03 02:25:53;;;;;;;10.70;5.87;;;;;;;12.60;100.00;99213.31;10457741;28;20205;-81
2021/07/03 02:31:12;;;;;;;8.40;5.70;;;;;;;12.47;100.00;99208.72;10456609;28;20203;-83
2021/07/03 02:36:31;;;;;;;8.17;5.70;;;;;;;12.40;100.00;99215.09;10456220;28;20187;-82
2021/07/03 02:41:51;;;;;;;6.27;4.80;;;;;;;12.47;100.00;99209.50;10457349;28;20175;-83
2021/07/03 02:47:09;;;;;;;8.60;6.60;;;;;;;12.43;100.00;99214.28;10457012;28;20167;-82
2021/07/03 02:52:28;;;;;;;7.10;5.30;;;;;;;12.35;100.00;99229.34;10455182;28;20242;-83
2021/07/03 02:57:48;;;;;;;8.60;5.13;;;;;;;12.32;100.00;99237.59;10455550;28;20226;-83
2021/07/03 03:03:06;;;;;;;9.33;6.50;;;;;;;12.43;100.00;99238.31;10455348;28;20179;-82
2021/07/03 03:08:25;;;;;;;9.60;4.80;;;;;;;12.25;100.00;99232.94;10456312;28;20198;-82
2021/07/03 03:13:44;;;;;;;11.20;5.17;;;;;;;12.27;100.00;99233.34;10455576;28;20302;-83
2021/07/03 03:19:04;;;;;;;7.40;5.67;;;;;;;12.13;100.00;99232.66;10453744;28;20215;-82
2021/07/03 03:24:23;;;;;;;7.73;5.30;;;;;;;12.15;100.00;99236.56;10455997;28;20199;-82
2021/07/03 03:29:41;;;;;;;8.90;4.57;;;;;;;12.12;100.00;99236.59;10455735;28;20203;-81
2021/07/03 03:35:00;;;;;;;11.53;5.77;;;;;;;12.21;100.00;99242.44;10454678;28;20247;-81
2021/07/03 03:40:20;;;;;;;12.90;5.67;;;;;;;12.35;100.00;99234.84;10455741;28;20195;-82
2021/07/03 03:45:39;;;;;;;10.47;4.93;;;;;;;12.23;100.00;99232.56;10461695;28;20213;-82
2021/07/03 03:50:58;;;;;;;7.93;4.50;;;;;;;12.20;100.00;99236.13;10462125;28;20588;-81
2021/07/03 03:56:17;;;;;;;11.23;5.67;;;;;;;12.22;100.00;99236.50;10463541;28;20171;-82
2021/07/03 04:01:37;;;;;;;7.87;5.10;;;;;;;12.24;100.00;99234.16;10463394;28;20533;-82
2021/07/03 04:06:55;;;;;;;7.80;5.33;;;;;;;12.25;100.00;99230.19;10462079;28;20513;-82
2021/07/03 04:12:15;;;;;;;7.80;5.27;;;;;;;12.32;100.00;99243.94;10461818;28;20214;-83
2021/07/03 04:17:34;;;;;;;12.33;7.10;;;;;;;12.44;100.00;99239.88;10459819;28;20219;-82
2021/07/03 04:22:54;;;;;;;12.93;6.23;;;;;;;12.51;100.00;99243.38;10461147;28;20195;-82
2021/07/03 04:28:13;;;;;;;10.00;6.40;;;;;;;12.59;100.00;99239.34;10462321;28;20167;-82
2021/07/03 04:33:33;;;;;;;13.97;6.03;;;;;;;12.72;100.00;99243.16;10459483;28;20665;-82
2021/07/03 04:38:52;;;;;;;6.63;5.27;;;;;;;12.85;100.00;99236.72;10462218;28;20192;-82
2021/07/03 04:44:11;;;;;;;11.17;5.97;;;;;;;12.98;100.00;99232.25;10461748;28;20207;-82
2021/07/03 04:49:33;;;;;;;13.77;6.20;;;;;;;13.17;100.00;99239.16;10460008;28;20203;-82
2021/07/03 04:54:53;;;;;;;10.83;6.13;;;;;;;13.38;100.00;99236.16;10460722;28;20317;-81
2021/07/03 05:00:13;;;;;;;11.23;6.20;;;;;;;13.65;100.00;99232.22;10460207;28;20171;-81
2021/07/03 05:05:35;;;;;;;21.70;8.30;;;;;;;13.80;100.00;99231.63;10459639;28;20175;-82
2021/07/03 05:10:54;;;;;;;12.10;7.77;;;;;;;13.93;100.00;99229.84;10459214;28;20278;-82
2021/07/03 05:16:13;;;;;;;14.03;7.23;;;;;;;14.01;100.00;99220.22;10459849;28;20250;-82
2021/07/03 05:21:32;;;;;;;10.97;6.13;;;;;;;14.25;100.00;99224.63;10458526;28;20215;-80
2021/07/03 05:26:51;;;;;;;10.23;7.03;;;;;;;14.52;100.00;99211.53;10460093;28;20238;-80
2021/07/03 05:32:10;;;;;;;13.73;7.70;;;;;;;14.70;100.00;99218.31;10458587;28;20206;-82
2021/07/03 05:37:29;;;;;;;10.40;6.83;;;;;;;14.95;100.00;99218.63;10459685;28;20179;-81
2021/07/03 05:42:48;;;;;;;12.83;7.80;;;;;;;15.17;100.00;99215.03;10459508;28;20179;-83
2021/07/03 05:48:08;;;;;;;14.40;6.80;;;;;;;15.41;100.00;99215.72;10457794;28;20175;-80
2021/07/03 05:53:27;;;;;;;15.13;8.43;;;;;;;15.61;100.00;99200.63;10457281;28;20293;-81
2021/07/03 05:58:46;;;;;;;11.10;8.40;;;;;;;15.84;100.00;99205.28;10459088;28;20168;-81
2021/07/03 06:04:05;;;;;;;15.10;8.80;;;;;;;15.94;100.00;99207.81;10457414;28;20541;-83
2021/07/03 06:09:24;;;;;;;12.70;7.67;;;;;;;16.34;100.00;99206.47;10456513;28;20258;-81
2021/07/03 06:14:43;;;;;;;16.03;8.63;;;;;;;16.63;100.00;99205.31;10458030;28;20223;-82
2021/07/03 06:20:03;;;;;;;10.40;7.00;;;;;;;16.54;100.00;99198.81;10455753;28;20198;-81
2021/07/03 06:25:22;;;;;;;10.80;7.53;;;;;;;16.74;100.00;99211.38;10458528;28;20171;-82
2021/07/03 06:30:41;;;;;;;68.07;11.70;;;;;;;16.94;100.00;99209.25;10457823;28;20298;-81
2021/07/03 06:36:00;;;;;;;17.80;9.43;;;;;;;16.90;100.00;99201.00;10456529;28;20183;-81
2021/07/03 06:41:19;;;;;;;18.50;7.57;;;;;;;17.28;100.00;99201.97;10456491;28;20527;-81
2021/07/03 06:46:38;;;;;;;15.87;8.60;;;;;;;16.84;100.00;99204.75;10457078;28;20172;-82
2021/07/03 06:51:57;;;;;;;13.87;8.50;;;;;;;16.88;100.00;99208.22;10454931;28;20671;-82
2021/07/03 06:57:16;;;;;;;14.90;9.20;;;;;;;17.23;100.00;99210.03;10456880;28;20187;-84
2021/07/03 07:02:35;;;;;;;15.13;8.40;;;;;;;17.54;100.00;99200.78;10454706;28;20187;-81
2021/07/03 07:07:54;;;;;;;13.23;7.27;;;;;;;18.37;100.00;99216.09;10455739;28;20175;-82
2021/07/03 07:13:13;;;;;;;13.23;8.10;;;;;;;19.12;100.00;99191.56;10455780;28;20206;-81
2021/07/03 07:18:32;;;;;;;13.33;8.10;;;;;;;19.83;100.00;99188.47;10454631;28;20257;-81
2021/07/03 07:23:51;;;;;;;13.67;8.80;;;;;;;20.35;100.00;99192.75;10456107;28;20199;-84
2021/07/03 07:29:10;;;;;;;14.80;8.57;;;;;;;21.30;100.00;99183.81;10455574;28;20175;-82
2021/07/03 07:34:29;;;;;;;13.83;8.07;;;;;;;21.60;100.00;99185.63;10454696;28;20172;-82
2021/07/03 07:39:48;;;;;;;10.70;7.60;;;;;;;21.83;94.83;99178.09;10455680;28;20187;-82
2021/07/03 07:45:09;;;;;;;12.40;7.90;;;;;;;22.36;100.00;99170.75;10454336;28;20538;-82
2021/07/03 07:50:28;;;;;;;10.30;7.47;;;;;;;22.83;93.16;99174.28;10454247;28;20278;-82
2021/07/03 07:55:47;;;;;;;7.73;5.97;;;;;;;23.55;83.26;99171.66;10454654;28;20218;-83
2021/07/03 08:01:06;;;;;;;10.47;6.93;;;;;;;23.44;70.11;99163.00;10455375;28;20630;-83
2021/07/03 08:06:25;;;;;;;10.70;6.67;;;;;;;23.78;73.17;99173.59;10453072;28;20575;-83
2021/07/03 08:11:44;;;;;;;12.47;7.63;;;;;;;24.33;68.73;99157.59;10454866;28;20215;-83
2021/07/03 08:17:03;;;;;;;11.07;7.40;;;;;;;24.42;67.26;99169.50;10454094;28;20215;-83
2021/07/03 08:22:22;;;;;;;9.73;6.13;;;;;;;24.78;63.25;99165.41;10452607;28;20650;-84
2021/07/03 08:27:41;;;;;;;12.93;8.73;;;;;;;25.28;63.27;99157.03;10454672;28;20175;-84
2021/07/03 08:33:01;;;;;;;11.00;7.30;;;;;;;26.00;55.52;99164.16;10459007;28;20286;-85
2021/07/03 08:38:21;;;;;;;10.87;7.00;;;;;;;26.21;54.76;99155.06;10460519;28;20595;-83
2021/07/03 08:43:50;;;;;;;11.70;6.53;;;;;;;26.72;54.83;99150.03;10461929;28;20626;-84
2021/07/03 08:49:09;;;;;;;11.57;7.13;;;;;;;26.30;52.47;99140.00;10418329;28;20275;-84
2021/07/03 08:54:28;;;;;;;11.43;6.50;;;;;;;26.48;55.81;99142.47;10420314;28;20220;-83
2021/07/03 08:59:58;;;;;;;10.87;6.47;;;;;;;27.53;50.92;99139.50;10420078;28;20184;-83
2021/07/03 09:05:26;;;;;;;11.63;6.93;;;;;;;27.95;50.88;99137.22;10418670;28;20255;-85
2021/07/03 09:10:46;;;;;;;8.63;7.37;;;;;;;28.10;47.06;99129.22;10418381;28;20207;-83
2021/07/03 09:16:06;;;;;;;9.30;6.97;;;;;;;28.15;50.14;99119.94;10436948;28;20226;-84
2021/07/03 09:21:25;;;;;;;7.27;6.53;;;;;;;28.23;47.77;99117.41;10458510;28;20658;-83
2021/07/03 09:26:44;;;;;;;9.50;7.03;;;;;;;28.94;48.15;99105.84;10458894;28;20708;-84
2021/07/03 09:32:09;;;;;;;8.53;5.83;;;;;;;29.37;47.96;99099.94;10458196;28;20294;-83
2021/07/03 09:37:28;;;;;;;5.47;4.90;;;;;;;29.85;44.25;99093.63;10452623;28;20179;-83
2021/07/03 09:42:47;;;;;;;9.17;5.50;;;;;;;29.84;43.28;99100.59;10458288;28;20171;-81
2021/07/03 09:48:09;;;;;;;5.70;5.20;;;;;;;30.21;40.65;99096.63;10458040;28;20262;-82
2021/07/03 09:53:29;;;;;;;8.10;6.53;;;;;;;29.47;45.94;99089.81;10457418;28;20218;-81
2021/07/03 09:58:48;;;;;;;7.33;5.60;;;;;;;29.79;42.97;99082.34;10444434;28;20184;-79
2021/07/03 10:04:08;;;;;;;6.47;5.40;;;;;;;30.87;42.14;99073.16;10457349;28;20603;-80
2021/07/03 10:09:43;;;;;;;5.67;5.13;;;;;;;30.92;38.98;99072.31;10458110;28;20175;-79
2021/07/03 10:15:04;;;;;;;9.13;5.80;;;;;;;31.41;38.55;99068.00;10457766;28;20223;-79
2021/07/03 10:20:31;;;;;;;7.20;5.77;;;;;;;31.43;37.40;99066.16;10455519;28;20599;-81
2021/07/03 10:25:51;;;;;;;5.37;4.97;;;;;;;31.14;37.48;99072.03;10457727;28;20175;-82
2021/07/03 10:31:13;;;;;;;6.33;5.70;;;;;;;29.52;40.16;99074.06;10456010;28;20211;-82
2021/07/03 10:36:32;;;;;;;6.00;5.30;;;;;;;28.38;45.72;99062.81;10455639;28;20543;-79
2021/07/03 10:41:52;;;;;;;10.60;5.23;;;;;;;27.78;43.28;99068.59;10455531;28;20179;-80
2021/07/03 10:47:12;;;;;;;5.93;5.40;;;;;;;28.39;45.64;99064.38;10456719;28;20171;-80
2021/07/03 10:52:39;;;;;;;15.83;5.67;;;;;;;29.70;41.11;99053.53;10454489;28;20602;-82
2021/07/03 10:58:00;;;;;;;6.60;5.80;;;;;;;28.10;44.98;99049.25;10455368;28;20183;-83
2021/07/03 11:03:23;;;;;;;8.50;4.93;;;;;;;28.64;44.13;99043.41;10455287;28;20175;-84
2021/07/03 11:08:43;;;;;;;6.23;5.63;;;;;;;30.94;38.71;99025.00;10454415;28;20183;-81
2021/07/03 11:14:02;;;;;;;8.87;5.47;;;;;;;31.09;36.76;99018.88;10454361;28;20305;-81
2021/07/03 11:19:26;;;;;;;8.17;5.70;;;;;;;28.11;42.80;99022.50;10453809;28;20256;-81
2021/07/03 11:24:49;;;;;;;6.50;5.63;;;;;;;29.29;44.09;99021.66;10455965;28;20175;-81
2021/07/03 11:30:22;;;;;;;8.30;5.30;;;;;;;30.69;38.57;99013.50;10454638;28;20243;-80
2021/07/03 11:35:48;;;;;;;5.70;4.70;;;;;;;32.09;38.02;98993.91;10454342;28;20179;-83
2021/07/03 11:41:08;;;;;;;5.50;5.00;;;;;;;31.70;36.40;98988.16;10455900;28;20530;-84
2021/07/03 11:46:27;;;;;;;6.63;5.93;;;;;;;32.85;35.56;98982.97;10454508;28;20203;-84
2021/07/03 11:51:57;;;;;;;6.07;5.50;;;;;;;33.43;34.95;98969.88;10452969;28;20258;-81
2021/07/03 11:57:16;;;;;;;6.40;5.30;;;;;;;32.37;35.56;98968.47;10455450;28;20191;-83
2021/07/03 12:02:36;;;;;;;7.63;5.53;;;;;;;33.38;36.03;98965.84;10454094;28;20175;-85
2021/07/03 12:08:07;;;;;;;6.37;5.77;;;;;;;33.62;34.05;98953.34;10462141;28;20677;-82
2021/07/03 12:13:28;;;;;;;5.60;5.03;;;;;;;32.57;35.01;98946.53;10421043;28;20310;-84
2021/07/03 12:18:55;;;;;;;6.20;5.60;;;;;;;31.64;38.37;98944.78;10419276;28;20200;-82
2021/07/03 12:24:14;;;;;;;5.90;5.30;;;;;;;30.98;38.19;98953.66;10420305;28;20520;-82
2021/07/03 12:29:35;;;;;;;5.03;4.53;;;;;;;30.19;40.36;98942.38;10419558;28;20546;-83
2021/07/03 12:34:54;;;;;;;6.87;6.17;;;;;;;29.97;41.26;98932.06;10418959;28;20247;-82
2021/07/03 12:40:16;;;;;;;5.67;5.27;;;;;;;29.66;41.18;98931.91;10419637;28;20610;-82
2021/07/03 12:45:35;;;;;;;6.60;5.77;;;;;;;29.64;39.31;98936.56;10420356;28;20184;-84
2021/07/03 12:50:58;;;;;;;7.80;5.10;;;;;;;29.35;40.64;98931.66;10417749;28;20203;-83
2021/07/03 12:56:19;;;;;;;7.60;5.77;;;;;;;28.74;41.50;98928.56;10419344;28;20172;-84
2021/07/03 13:01:40;;;;;;;8.03;4.93;;;;;;;28.66;44.09;98921.13;10420885;28;20207;-83
2021/07/03 13:07:00;;;;;;;5.80;5.30;;;;;;;29.63;46.02;98915.19;10435567;28;20218;-82
2021/07/03 13:12:19;;;;;;;5.60;5.07;;;;;;;31.53;40.29;98910.06;10459351;28;20206;-83
2021/07/03 13:17:38;;;;;;;5.97;5.47;;;;;;;32.96;37.67;98900.78;10457278;28;20219;-82
2021/07/03 13:22:57;;;;;;;5.77;5.20;;;;;;;33.42;35.69;98897.03;10459237;28;20171;-81
2021/07/03 13:28:16;;;;;;;8.00;5.33;;;;;;;34.18;33.62;98886.34;10447567;28;20179;-81
2021/07/03 13:33:37;;;;;;;6.03;4.80;;;;;;;34.10;32.80;98879.03;10441186;28;20207;-81
2021/07/03 13:38:56;;;;;;;5.17;4.77;;;;;;;32.61;33.44;98901.38;10450343;28;20183;-80
2021/07/03 13:44:15;;;;;;;6.53;5.70;;;;;;;31.91;36.73;98889.44;10458596;28;20813;-81
2021/07/03 13:49:34;;;;;;;5.27;4.87;;;;;;;31.66;35.06;98893.81;10457064;28;20527;-81
2021/07/03 13:54:54;;;;;;;5.20;4.80;;;;;;;29.06;39.72;98897.66;10459089;28;20183;-80
2021/07/03 14:00:14;;;;;;;6.67;5.40;;;;;;;29.01;42.02;98885.09;10458913;28;20249;-82
2021/07/03 14:05:36;;;;;;;7.17;5.77;;;;;;;28.15;43.82;98890.03;10457085;28;20561;-82
2021/07/03 14:10:56;;;;;;;6.40;5.43;;;;;;;27.70;44.16;98875.31;10456892;28;20210;-84
2021/07/03 14:16:14;;;;;;;5.43;4.80;;;;;;;27.86;44.80;98876.56;10457474;28;20234;-84
2021/07/03 14:21:34;;;;;;;6.33;4.60;;;;;;;28.31;43.28;98864.50;10456857;28;20259;-84
2021/07/03 14:26:53;;;;;;;4.50;4.13;;;;;;;30.44;39.38;98858.66;10455971;28;20168;-82
2021/07/03 14:32:12;;;;;;;5.13;4.03;;;;;;;30.13;37.98;98854.47;10456031;28;20672;-82
2021/07/03 14:38:01;;;;;;;5.00;4.50;;;;;;;29.86;40.56;98856.88;10562069;27;25119;-84
2021/07/03 14:43:20;;;;;;;4.90;4.33;;;;;;;29.75;38.76;98840.00;10536483;28;20186;-84
2021/07/03 14:48:39;;;;;;;5.97;5.10;;;;;;;30.36;37.52;98843.56;10529738;28;20629;-83
2021/07/03 14:53:58;;;;;;;5.87;5.27;;;;;;;31.81;35.92;98831.44;10532309;28;20205;-84
2021/07/03 14:59:17;;;;;;;5.63;5.07;;;;;;;31.29;35.60;98831.44;10533116;28;20214;-84
2021/07/03 15:04:37;;;;;;;5.27;4.70;;;;;;;30.85;38.22;98817.25;10530335;28;20178;-85
2021/07/03 15:09:56;;;;;;;13.53;5.40;;;;;;;31.19;35.54;98821.00;10512593;28;20262;-85
2021/07/03 15:15:15;;;;;;;5.10;4.60;;;;;;;31.17;36.65;98809.44;10531020;28;20825;-86
2021/07/03 15:20:33;;;;;;;5.73;5.03;;;;;;;29.17;38.89;98819.78;10567040;28;20607;-84
2021/07/03 15:25:53;;;;;;;5.43;4.87;;;;;;;29.91;39.84;98810.66;10574091;28;20185;-86
2021/07/03 15:31:14;;;;;;;5.57;5.10;;;;;;;28.22;42.59;98811.06;10572674;28;20173;-84
2021/07/03 15:36:33;;;;;;;5.90;5.30;;;;;;;27.82;43.05;98797.66;10571440;28;20703;-84
2021/07/03 15:41:52;;;;;;;4.90;4.37;;;;;;;29.54;39.09;98799.28;10573115;28;20639;-84
2021/07/03 15:47:12;;;;;;;5.80;5.30;;;;;;;30.62;38.33;98793.34;10556269;28;20182;-83
2021/07/03 15:52:31;;;;;;;5.00;4.50;;;;;;;29.88;39.32;98786.22;10544480;28;20176;-82
2021/07/03 15:57:51;;;;;;;6.40;4.73;;;;;;;30.73;37.06;98784.63;10543929;28;20177;-85
2021/07/03 16:03:10;;;;;;;6.00;5.17;;;;;;;30.96;36.37;98783.72;10542360;28;20178;-85
2021/07/03 16:08:29;;;;;;;4.97;4.50;;;;;;;30.32;37.62;98781.41;10542922;28;20636;-85
2021/07/03 16:13:48;;;;;;;5.70;5.20;;;;;;;30.50;38.19;98774.97;10543170;28;20201;-84
2021/07/03 16:19:07;;;;;;;5.33;4.83;;;;;;;27.96;44.21;98785.22;10541607;28;20675;-83
2021/07/03 16:24:26;;;;;;;5.13;4.73;;;;;;;28.19;44.38;98786.63;10542863;28;20166;-83
2021/07/03 16:29:45;;;;;;;4.37;3.97;;;;;;;27.21;45.33;98770.94;10543528;28;20178;-84
2021/07/03 16:35:04;;;;;;;4.80;4.20;;;;;;;27.83;43.53;98770.13;10540425;28;20229;-83
2021/07/03 16:40:23;;;;;;;6.90;4.80;;;;;;;28.79;41.30;98762.75;10542948;28;20178;-83
2021/07/03 16:45:42;;;;;;;7.70;5.23;;;;;;;28.76;42.00;98753.19;10543034;28;20178;-83
2021/07/03 16:51:03;;;;;;;6.60;4.00;;;;;;;29.32;40.91;98751.34;10541493;28;20181;-83
2021/07/03 16:56:22;;;;;;;5.10;4.70;;;;;;;29.03;41.38;98757.84;10540446;28;20242;-84
2021/07/03 17:01:41;;;;;;;5.43;4.73;;;;;;;28.47;43.08;98756.84;10541414;28;20166;-84
2021/07/03 17:07:01;;;;;;;6.87;4.90;;;;;;;28.62;44.52;98754.38;10539586;28;20185;-84
2021/07/03 17:12:20;;;;;;;6.90;5.60;;;;;;;28.81;42.72;98755.25;10540974;28;20526;-84
2021/07/03 17:17:39;;;;;;;5.00;4.60;;;;;;;27.92;46.48;98752.88;10539546;28;20258;-84
2021/07/03 17:22:59;;;;;;;6.47;5.70;;;;;;;27.42;47.47;98753.09;10541482;28;20227;-85
2021/07/03 17:28:18;;;;;;;5.53;5.03;;;;;;;27.16;49.11;98760.41;10541230;28;20796;-85
2021/07/03 17:33:37;;;;;;;4.93;4.53;;;;;;;26.84;49.29;98759.16;10539664;28;20234;-85
2021/07/03 17:38:56;;;;;;;7.03;5.10;;;;;;;26.62;50.27;98757.69;10540741;28;20186;-84
2021/07/03 17:44:15;;;;;;;6.00;5.03;;;;;;;27.64;48.99;98753.03;10540823;28;20632;-85
2021/07/03 17:49:34;;;;;;;5.10;4.50;;;;;;;27.53;51.36;98750.22;10538336;28;20593;-84
2021/07/03 17:54:53;;;;;;;7.00;5.37;;;;;;;27.41;49.74;98747.97;10539020;28;20205;-84
2021/07/03 18:00:14;;;;;;;7.13;4.80;;;;;;;27.49;50.19;98751.78;10539290;28;20173;-85
2021/07/03 18:05:35;;;;;;;6.57;5.50;;;;;;;27.04;51.42;98752.47;10538512;28;20201;-85
2021/07/03 18:10:53;;;;;;;5.73;5.13;;;;;;;26.38;51.42;98732.78;10539937;28;20532;-85
2021/07/03 18:16:12;;;;;;;8.80;5.43;;;;;;;26.26;53.83;98730.47;10537721;28;20215;-85
2021/07/03 18:21:33;;;;;;;5.97;4.57;;;;;;;26.06;56.63;98727.91;10540088;28;20640;-84
2021/07/03 18:26:52;;;;;;;5.10;4.63;;;;;;;25.78;59.67;98729.91;10540156;28;20182;-84
2021/07/03 18:32:13;;;;;;;6.90;5.13;;;;;;;25.43;59.80;98731.59;10537683;28;20280;-84
2021/07/03 18:37:32;;;;;;;5.63;5.03;;;;;;;25.17;60.85;98725.34;10536608;28;20229;-84
2021/07/03 18:42:50;;;;;;;6.27;5.37;;;;;;;25.11;62.73;98733.00;10537988;28;20182;-84
2021/07/03 18:48:09;;;;;;;5.63;5.10;;;;;;;24.77;64.42;98733.31;10536255;28;20182;-84
2021/07/03 18:53:29;;;;;;;4.93;4.20;;;;;;;24.28;69.26;98728.09;10537381;28;20664;-84
2021/07/03 18:58:48;;;;;;;6.70;4.97;;;;;;;23.97;71.04;98725.28;10542888;28;20178;-84
2021/07/03 19:04:07;;;;;;;8.50;5.20;;;;;;;23.74;72.62;98734.00;10537301;28;20170;-84
2021/07/03 19:09:28;;;;;;;5.20;4.70;;;;;;;23.55;73.04;98735.53;10538618;28;20246;-84
2021/07/03 19:14:47;;;;;;;6.13;5.50;;;;;;;23.49;72.21;98729.88;10536753;28;20292;-84
2021/07/03 19:20:09;;;;;;;9.90;6.53;;;;;;;23.38;78.00;98731.81;10536601;28;20178;-83
2021/07/03 19:25:28;;;;;;;6.77;6.07;;;;;;;23.05;84.33;98734.22;10546335;28;20171;-83
2021/07/03 19:30:47;;;;;;;7.03;5.40;;;;;;;22.76;85.72;98733.53;10545948;28;20648;-83
2021/07/03 19:36:06;;;;;;;8.03;5.53;;;;;;;22.62;84.92;98734.31;10552258;28;20233;-84
2021/07/03 19:41:25;;;;;;;8.37;6.00;;;;;;;22.22;88.54;98739.78;10545347;28;20739;-83
2021/07/03 19:46:45;;;;;;;7.43;5.93;;;;;;;21.91;92.87;98742.34;10545218;28;20234;-83
2021/07/03 19:52:05;;;;;;;7.93;5.90;;;;;;;21.70;93.10;98731.50;10542755;28;20175;-84
2021/07/03 19:57:24;;;;;;;7.57;5.63;;;;;;;21.42;94.78;98732.22;10542990;28;20546;-83
2021/07/03 20:02:44;;;;;;;15.13;5.90;;;;;;;21.46;93.79;98732.81;10542246;28;20182;-83
2021/07/03 20:08:03;;;;;;;8.33;5.20;;;;;;;21.18;94.96;98735.06;10544018;28;20633;-84
2021/07/03 20:13:22;;;;;;;6.73;5.43;;;;;;;20.99;100.00;98730.09;10543275;28;20281;-83
2021/07/03 20:18:41;;;;;;;9.57;6.70;;;;;;;20.93;100.00;98743.16;10541876;28;20206;-83
2021/07/03 20:24:02;;;;;;;10.30;6.00;;;;;;;20.63;100.00;98744.25;10543501;28;20182;-83
2021/07/03 20:29:22;;;;;;;6.10;5.50;;;;;;;20.54;100.00;98752.69;10500730;28;20588;-83
2021/07/03 20:34:41;;;;;;;7.17;5.73;;;;;;;20.37;100.00;98748.75;10539664;28;20316;-83
2021/07/03 20:40:00;;;;;;;12.30;7.40;;;;;;;20.26;100.00;98748.50;10542234;28;20219;-83
2021/07/03 20:45:20;;;;;;;8.50;6.23;;;;;;;20.06;100.00;98744.69;10542278;28;20260;-84
2021/07/03 20:50:40;;;;;;;15.80;6.63;;;;;;;19.83;100.00;98750.91;10540643;28;20178;-83
2021/07/03 20:55:59;;;;;;;9.40;6.30;;;;;;;19.67;100.00;98751.25;10542158;28;20213;-84
2021/07/03 21:01:18;;;;;;;10.10;5.43;;;;;;;19.62;100.00;98753.91;10541138;28;20190;-85
2021/07/03 21:06:37;;;;;;;9.80;6.30;;;;;;;19.54;100.00;98749.88;10541461;28;20178;-84
2021/07/03 21:11:56;;;;;;;11.40;7.20;;;;;;;19.58;100.00;98754.06;10542333;28;20178;-84
2021/07/03 21:17:15;;;;;;;10.47;6.83;;;;;;;19.53;100.00;98749.09;10541094;28;20210;-84
2021/07/03 21:22:34;;;;;;;11.60;7.50;;;;;;;19.49;100.00;98750.50;10539608;28;20185;-84
2021/07/03 21:27:55;;;;;;;11.57;6.60;;;;;;;19.45;100.00;98761.81;10539982;28;20260;-84
2021/07/03 21:33:14;;;;;;;7.80;6.40;;;;;;;19.45;100.00;98761.06;10539726;28;20225;-84
2021/07/03 21:38:33;;;;;;;8.80;6.70;;;;;;;19.41;100.00;98757.63;10540736;28;20178;-83
2021/07/03 21:43:52;;;;;;;12.90;8.73;;;;;;;19.49;100.00;98753.28;10540250;28;20194;-84
2021/07/03 21:49:11;;;;;;;12.20;8.60;;;;;;;19.19;100.00;98748.66;10496785;28;20542;-85
2021/07/03 21:54:31;;;;;;;10.97;8.30;;;;;;;19.21;100.00;98751.75;10497781;28;20561;-85
2021/07/03 21:59:50;;;;;;;13.57;8.57;;;;;;;18.93;100.00;98752.94;10499161;28;20174;-85
2021/07/03 22:05:10;;;;;;;11.97;8.50;;;;;;;18.77;100.00;98755.25;10497699;28;20174;-84
2021/07/03 22:10:29;;;;;;;15.50;9.20;;;;;;;18.79;100.00;98752.75;10498867;28;20162;-84
2021/07/03 22:15:52;;;;;;;12.93;8.40;;;;;;;18.72;100.00;98753.84;10513825;28;20751;-83
2021/07/03 22:21:17;;;;;;;14.43;10.40;;;;;;;18.78;100.00;98754.78;10538823;28;20225;-84
2021/07/03 22:26:36;;;;;;;11.70;8.90;;;;;;;18.76;100.00;98751.66;10539654;28;20178;-84
2021/07/03 22:31:55;;;;;;;11.67;8.37;;;;;;;18.60;100.00;98751.16;10539411;28;20185;-84
2021/07/03 22:37:14;;;;;;;13.87;6.60;;;;;;;18.54;100.00;98748.22;10536537;28;20230;-83
2021/07/03 22:42:33;;;;;;;11.80;7.33;;;;;;;18.44;100.00;98743.06;10538665;28;20652;-84
2021/07/03 22:47:52;;;;;;;13.43;7.50;;;;;;;18.41;100.00;98739.19;10538194;28;20197;-85
2021/07/03 22:53:12;;;;;;;12.00;8.13;;;;;;;18.46;100.00;98738.59;10537572;28;20181;-84
2021/07/03 22:58:31;;;;;;;12.87;8.27;;;;;;;18.36;100.00;98729.88;10544834;28;20174;-84
2021/07/03 23:03:50;;;;;;;11.20;8.27;;;;;;;18.48;100.00;98721.41;10544840;28;20185;-83
2021/07/03 23:09:09;;;;;;;10.30;6.90;;;;;;;18.47;100.00;98726.22;10546007;28;20644;-83
2021/07/03 23:14:28;;;;;;;10.30;7.23;;;;;;;18.27;100.00;98718.72;10545244;28;20209;-83
2021/07/03 23:19:48;;;;;;;10.90;7.60;;;;;;;18.25;100.00;98721.97;10544750;28;20257;-83
2021/07/03 23:25:08;;;;;;;19.57;7.37;;;;;;;18.37;100.00;98725.88;10547061;28;20166;-84
2021/07/03 23:30:30;;;;;;;9.90;8.10;;;;;;;18.33;100.00;98722.47;10546356;28;20532;-84
2021/07/03 23:35:49;;;;;;;9.50;6.43;;;;;;;18.28;100.00;98721.06;10544078;28;20229;-83
2021/07/03 23:41:08;;;;;;;12.20;7.47;;;;;;;18.07;100.00;98724.63;10546175;28;20524;-83
2021/07/03 23:46:27;;;;;;;13.23;8.60;;;;;;;17.81;100.00;98742.75;10545674;28;20206;-83
2021/07/03 23:51:46;;;;;;;11.40;8.00;;;;;;;17.62;100.00;98726.41;10501198;28;20182;-82
2021/07/03 23:57:05;;;;;;;9.17;7.27;;;;;;;17.87;100.00;98729.03;10507285;28;20210;-82
